createdAt,value
2022-11-29T00:01:32.208Z,101586.94
2022-11-29T00:04:03.255Z,101582.44
2022-11-29T00:06:33.886Z,101587.38
2022-11-29T00:09:06.394Z,101597.78
2022-11-29T00:11:53.304Z,101603.56
2022-11-29T00:14:25.281Z,101590.69
2022-11-29T00:16:54.427Z,101587.09
2022-11-29T00:19:24.457Z,101586.47
2022-11-29T00:21:52.831Z,101589.25
2022-11-29T00:24:21.274Z,101595.72
2022-11-29T00:26:50.070Z,101591.72
2022-11-29T00:29:18.105Z,101596.19
2022-11-29T00:31:47.077Z,101594.28
2022-11-29T00:34:15.322Z,101595.56
2022-11-29T00:36:44.682Z,101593.41
2022-11-29T00:39:16.495Z,101596.53
2022-11-29T00:41:44.631Z,101608.13
2022-11-29T00:44:18.384Z,101611.41
2022-11-29T00:46:48.337Z,101607.25
2022-11-29T00:49:16.452Z,101612.44
2022-11-29T00:51:45.838Z,101615.09
2022-11-29T00:54:15.128Z,101618.78
2022-11-29T00:56:43.440Z,101613.97
2022-11-29T00:59:11.834Z,101613.41
2022-11-29T01:01:39.889Z,101620.78
2022-11-29T01:04:08.275Z,101616.03
2022-11-29T01:06:36.329Z,101616.59
2022-11-29T01:09:05.981Z,101619.63
2022-11-29T01:11:34.656Z,101619.13
2022-11-29T01:14:03.841Z,101610.84
2022-11-29T01:16:32.873Z,101610.38
2022-11-29T01:19:01.722Z,101601.22
2022-11-29T01:21:30.110Z,101597.19
2022-11-29T01:23:58.667Z,101598.22
2022-11-29T01:26:29.731Z,101595.88
2022-11-29T01:28:59.177Z,101601.16
2022-11-29T01:31:31.170Z,101599.56
2022-11-29T01:34:01.897Z,101610.78
2022-11-29T01:36:31.338Z,101610.91
2022-11-29T01:39:00.986Z,101616.13
2022-11-29T01:41:32.870Z,101611.06
2022-11-29T01:44:03.599Z,101616.28
2022-11-29T01:46:33.593Z,101611.16
2022-11-29T01:49:06.600Z,101622.31
2022-11-29T01:51:37.115Z,101612.06
2022-11-29T01:54:06.241Z,101615.38
2022-11-29T01:56:36.277Z,101612.06
2022-11-29T01:59:09.121Z,101611.22
2022-11-29T02:01:38.117Z,101615.53
2022-11-29T02:04:07.415Z,101612.19
2022-11-29T02:06:36.977Z,101621.63
2022-11-29T02:09:05.062Z,101622.59
2022-11-29T02:11:52.587Z,101627.72
2022-11-29T02:14:48.338Z,101628.59
2022-11-29T02:17:29.323Z,101627.72
2022-11-29T02:20:32.817Z,101645.66
2022-11-29T02:23:13.471Z,101650.88
2022-11-29T02:25:55.981Z,101659.47
2022-11-29T02:28:57.172Z,101655.25
2022-11-29T02:31:59.151Z,101653.72
2022-11-29T02:34:47.038Z,101633.13
2022-11-29T02:37:29.773Z,101639.75
2022-11-29T02:40:23.313Z,101649.69
2022-11-29T02:43:12.016Z,101646.72
2022-11-29T02:46:04.955Z,101643.78
2022-11-29T02:48:52.895Z,101642.44
2022-11-29T02:51:29.059Z,101641.41
2022-11-29T02:54:04.105Z,101638.06
2022-11-29T02:56:39.162Z,101636.28
2022-11-29T02:59:14.568Z,101631.00
2022-11-29T03:01:54.330Z,101632.47
2022-11-29T03:04:30.315Z,101636.41
2022-11-29T03:07:06.072Z,101643.06
2022-11-29T03:09:40.649Z,101652.81
2022-11-29T03:12:20.067Z,101648.16
2022-11-29T03:14:58.588Z,101664.72
2022-11-29T03:17:41.940Z,101673.50
2022-11-29T03:20:28.043Z,101672.94
2022-11-29T03:23:11.006Z,101678.50
2022-11-29T03:25:43.297Z,101674.34
2022-11-29T03:28:16.128Z,101670.19
2022-11-29T03:30:52.294Z,101674.50
2022-11-29T03:33:27.113Z,101677.72
2022-11-29T03:36:01.415Z,101673.78
2022-11-29T03:38:40.152Z,101682.72
2022-11-29T03:41:18.928Z,101681.31
2022-11-29T03:43:54.501Z,101679.16
2022-11-29T03:46:30.624Z,101674.47
2022-11-29T03:49:03.939Z,101682.47
2022-11-29T03:51:44.506Z,101676.69
2022-11-29T03:54:20.804Z,101683.81
2022-11-29T03:56:49.656Z,101682.84
2022-11-29T03:59:30.798Z,101682.72
2022-11-29T04:02:17.449Z,101687.34
2022-11-29T04:05:18.006Z,101701.75
2022-11-29T04:07:57.157Z,101708.38
2022-11-29T04:10:38.840Z,101706.38
2022-11-29T04:13:51.138Z,101708.63
2022-11-29T04:16:37.353Z,101706.44
2022-11-29T04:19:52.660Z,101713.53
2022-11-29T04:22:53.645Z,101718.84
2022-11-29T04:25:49.381Z,101721.56
2022-11-29T04:28:44.585Z,101736.94
2022-11-29T04:31:24.243Z,101743.91
2022-11-29T04:34:19.238Z,101748.22
2022-11-29T04:37:19.598Z,101746.63
2022-11-29T04:40:21.109Z,101746.63
2022-11-29T04:43:46.695Z,101756.22
2022-11-29T04:46:33.064Z,101750.50
2022-11-29T04:49:16.314Z,101751.16
2022-11-29T04:52:00.058Z,101760.50
2022-11-29T04:54:35.933Z,101763.63
2022-11-29T04:57:10.115Z,101764.91
2022-11-29T04:59:46.202Z,101762.09
2022-11-29T05:02:30.391Z,101758.75
2022-11-29T05:05:05.274Z,101758.88
2022-11-29T05:07:40.825Z,101759.06
2022-11-29T05:10:25.552Z,101760.09
2022-11-29T05:13:05.018Z,101760.25
2022-11-29T05:16:09.189Z,101756.00
2022-11-29T05:19:13.064Z,101752.47
2022-11-29T05:21:50.726Z,101751.44
2022-11-29T05:24:33.414Z,101750.16
2022-11-29T05:27:07.574Z,101744.91
2022-11-29T05:29:42.539Z,101764.44
2022-11-29T05:32:35.369Z,101776.81
2022-11-29T05:35:51.565Z,101784.44
2022-11-29T05:38:38.831Z,101787.31
2022-11-29T05:41:19.344Z,101788.47
2022-11-29T05:43:56.748Z,101795.34
2022-11-29T05:46:31.403Z,101803.19
2022-11-29T05:49:11.664Z,101790.53
2022-11-29T05:51:44.441Z,101793.41
2022-11-29T05:54:27.679Z,101800.47
2022-11-29T05:57:06.690Z,101805.84
2022-11-29T05:59:39.293Z,101809.47
2022-11-29T06:02:21.186Z,101816.34
2022-11-29T06:04:59.396Z,101814.72
2022-11-29T06:07:38.650Z,101814.00
2022-11-29T06:10:12.264Z,101807.28
2022-11-29T06:12:43.714Z,101802.22
2022-11-29T06:15:31.654Z,101806.53
2022-11-29T06:18:13.640Z,101807.34
2022-11-29T06:20:53.565Z,101805.44
2022-11-29T06:23:48.558Z,101794.16
2022-11-29T06:26:34.340Z,101813.75
2022-11-29T06:29:22.396Z,101827.22
2022-11-29T06:31:55.478Z,101835.69
2022-11-29T06:34:34.357Z,101838.44
2022-11-29T06:37:14.431Z,101832.69
2022-11-29T06:39:44.519Z,101837.09
2022-11-29T06:42:12.247Z,101840.69
2022-11-29T06:44:40.810Z,101837.31
2022-11-29T06:47:14.968Z,101849.44
2022-11-29T06:49:49.284Z,101855.50
2022-11-29T06:52:26.473Z,101855.59
2022-11-29T06:55:16.580Z,101856.66
2022-11-29T06:58:01.647Z,101857.34
2022-11-29T07:00:38.649Z,101854.78
2022-11-29T07:03:19.950Z,101853.13
2022-11-29T07:05:48.694Z,101839.31
2022-11-29T07:08:19.884Z,101826.50
2022-11-29T07:10:53.154Z,101833.16
2022-11-29T07:13:22.446Z,101844.69
2022-11-29T07:16:02.769Z,101848.69
2022-11-29T07:18:41.591Z,101856.22
2022-11-29T07:21:20.842Z,101859.75
2022-11-29T07:24:02.371Z,101857.34
2022-11-29T07:26:39.541Z,101871.25
2022-11-29T07:29:25.119Z,101866.97
2022-11-29T07:32:04.574Z,101867.72
2022-11-29T07:34:41.484Z,101859.06
2022-11-29T07:37:21.549Z,101856.38
2022-11-29T07:39:56.663Z,101854.78
2022-11-29T07:42:33.165Z,101851.59
2022-11-29T07:45:07.441Z,101846.66
2022-11-29T07:47:36.258Z,101863.06
2022-11-29T07:50:07.525Z,101861.53
2022-11-29T07:52:35.650Z,101868.56
2022-11-29T07:55:05.201Z,101874.75
2022-11-29T07:57:36.703Z,101881.69
2022-11-29T08:00:05.929Z,101880.84
2022-11-29T08:02:34.723Z,101881.81
2022-11-29T08:05:03.978Z,101880.28
2022-11-29T08:07:36.502Z,101891.56
2022-11-29T08:10:06.782Z,101890.69
2022-11-29T08:12:35.988Z,101896.78
2022-11-29T08:15:04.984Z,101905.44
2022-11-29T08:17:33.136Z,101908.97
2022-11-29T08:20:04.171Z,101915.88
2022-11-29T08:22:32.600Z,101916.81
2022-11-29T08:25:01.653Z,101911.84
2022-11-29T08:27:31.079Z,101905.97
2022-11-29T08:30:00.525Z,101899.25
2022-11-29T08:32:29.034Z,101891.78
2022-11-29T08:34:57.072Z,101897.22
2022-11-29T08:37:25.050Z,101888.88
2022-11-29T08:39:53.021Z,101895.09
2022-11-29T08:42:21.327Z,101894.47
2022-11-29T08:44:49.384Z,101890.38
2022-11-29T08:47:36.052Z,101898.19
2022-11-29T08:50:07.833Z,101888.03
2022-11-29T08:52:55.106Z,101881.25
2022-11-29T08:55:26.062Z,101880.38
2022-11-29T08:57:55.991Z,101886.25
2022-11-29T09:00:25.229Z,101893.00
2022-11-29T09:02:54.653Z,101892.13
2022-11-29T09:05:22.757Z,101893.00
2022-11-29T09:07:50.924Z,101899.91
2022-11-29T09:10:18.986Z,101893.16
2022-11-29T09:12:49.678Z,101902.59
2022-11-29T09:15:17.849Z,101900.94
2022-11-29T09:17:45.912Z,101896.66
2022-11-29T09:20:15.493Z,101898.53
2022-11-29T09:22:43.535Z,101909.81
2022-11-29T09:25:12.265Z,101910.75
2022-11-29T09:27:41.777Z,101913.56
2022-11-29T09:30:11.047Z,101923.19
2022-11-29T09:32:39.330Z,101927.59
2022-11-29T09:35:08.221Z,101926.03
2022-11-29T09:37:38.093Z,101933.97
2022-11-29T09:40:07.692Z,101929.88
2022-11-29T09:42:45.350Z,101941.47
2022-11-29T09:45:18.581Z,101934.94
2022-11-29T09:48:12.866Z,101925.03
2022-11-29T09:50:48.817Z,101927.94
2022-11-29T09:53:35.421Z,101930.09
2022-11-29T09:56:19.793Z,101916.75
2022-11-29T09:58:51.667Z,101917.94
2022-11-29T10:01:24.609Z,101918.38
2022-11-29T10:03:56.106Z,101920.53
2022-11-29T10:06:29.423Z,101924.47
2022-11-29T10:09:03.333Z,101924.88
2022-11-29T10:11:38.366Z,101929.47
2022-11-29T10:14:13.388Z,101932.47
2022-11-29T10:16:47.641Z,101920.84
2022-11-29T10:19:23.380Z,101923.72
2022-11-29T10:22:00.499Z,101929.72
2022-11-29T10:24:30.856Z,101917.84
2022-11-29T10:26:59.153Z,101914.56
2022-11-29T10:29:27.341Z,101912.16
2022-11-29T10:31:56.969Z,101920.88
2022-11-29T10:34:26.802Z,101925.16
2022-11-29T10:36:59.532Z,101922.59
2022-11-29T10:39:42.247Z,101926.94
2022-11-29T10:42:36.249Z,101918.44
2022-11-29T10:45:06.014Z,101921.97
2022-11-29T10:47:34.408Z,101914.25
2022-11-29T10:50:02.436Z,101910.91
2022-11-29T10:52:30.409Z,101915.38
2022-11-29T10:55:01.306Z,101914.50
2022-11-29T10:57:29.297Z,101925.56
2022-11-29T11:00:04.071Z,101918.50
2022-11-29T11:02:32.883Z,101913.16
2022-11-29T11:05:01.795Z,101902.81
2022-11-29T11:07:33.855Z,101906.19
2022-11-29T11:10:05.794Z,101906.13
2022-11-29T11:12:36.962Z,101914.53
2022-11-29T11:15:18.666Z,101914.28
2022-11-29T11:17:58.393Z,101913.28
2022-11-29T11:20:28.736Z,101900.22
2022-11-29T11:23:01.239Z,101898.66
2022-11-29T11:25:34.746Z,101889.53
2022-11-29T11:28:18.108Z,101884.03
2022-11-29T11:30:52.727Z,101885.41
2022-11-29T11:33:22.969Z,101875.50
2022-11-29T11:36:01.941Z,101878.69
2022-11-29T11:38:30.276Z,101868.88
2022-11-29T11:41:06.489Z,101859.81
2022-11-29T11:43:35.648Z,101863.16
2022-11-29T11:46:05.127Z,101852.00
2022-11-29T11:48:37.175Z,101853.50
2022-11-29T11:51:05.364Z,101851.66
2022-11-29T11:53:36.615Z,101852.91
2022-11-29T11:56:09.090Z,101849.66
2022-11-29T11:58:40.478Z,101848.91
2022-11-29T12:01:17.623Z,101844.69
2022-11-29T12:03:51.983Z,101836.75
2022-11-29T12:06:37.432Z,101831.16
2022-11-29T12:09:14.016Z,101834.19
2022-11-29T12:11:50.400Z,101830.50
2022-11-29T12:14:28.322Z,101837.47
2022-11-29T12:17:04.893Z,101840.75
2022-11-29T12:19:40.837Z,101830.16
2022-11-29T12:22:24.004Z,101831.38
2022-11-29T12:25:13.613Z,101827.44
2022-11-29T12:28:00.677Z,101829.47
2022-11-29T12:30:35.641Z,101821.31
2022-11-29T12:33:29.880Z,101833.41
2022-11-29T12:36:23.990Z,101830.00
2022-11-29T12:39:12.767Z,101835.44
2022-11-29T12:42:04.404Z,101828.00
2022-11-29T12:44:46.075Z,101824.69
2022-11-29T12:47:35.660Z,101831.16
2022-11-29T12:50:18.564Z,101838.28
2022-11-29T12:52:53.615Z,101833.47
2022-11-29T12:55:26.373Z,101834.41
2022-11-29T12:58:04.470Z,101837.91
2022-11-29T13:00:43.498Z,101830.22
2022-11-29T13:03:27.100Z,101842.34
2022-11-29T13:06:10.155Z,101846.47
2022-11-29T13:08:55.256Z,101835.00
2022-11-29T13:11:28.798Z,101841.81
2022-11-29T13:14:34.624Z,101836.75
2022-11-29T13:16:58.904Z,101835.00
2022-11-29T13:19:36.523Z,101831.50
2022-11-29T13:22:13.229Z,101840.88
2022-11-29T13:24:48.056Z,101830.59
2022-11-29T13:27:28.026Z,101832.31
2022-11-29T13:29:57.232Z,101824.41
2022-11-29T13:32:41.201Z,101834.72
2022-11-29T13:35:20.294Z,101824.44
2022-11-29T13:37:55.290Z,101816.66
2022-11-29T13:40:39.315Z,101818.44
2022-11-29T13:43:17.207Z,101804.72
2022-11-29T13:45:53.204Z,101800.38
2022-11-29T13:48:35.168Z,101804.59
2022-11-29T13:51:26.048Z,101798.31
2022-11-29T13:53:55.618Z,101796.34
2022-11-29T13:56:29.917Z,101787.44
2022-11-29T13:58:59.077Z,101804.41
2022-11-29T14:01:27.769Z,101808.50
2022-11-29T14:04:31.757Z,101807.50
2022-11-29T14:07:08.976Z,101808.13
2022-11-29T14:09:46.088Z,101802.88
2022-11-29T14:12:29.001Z,101805.38
2022-11-29T14:15:01.986Z,101798.28
2022-11-29T14:17:48.009Z,101800.13
2022-11-29T14:20:52.291Z,101794.91
2022-11-29T14:23:38.032Z,101794.84
2022-11-29T14:26:31.636Z,101804.22
2022-11-29T14:29:00.861Z,101799.81
2022-11-29T14:31:52.309Z,101794.50
2022-11-29T14:34:46.925Z,101792.53
2022-11-29T14:37:29.575Z,101793.13
2022-11-29T14:40:03.561Z,101792.94
2022-11-29T14:42:32.954Z,101787.59
2022-11-29T14:45:05.036Z,101791.72
2022-11-29T14:47:36.988Z,101782.09
2022-11-29T14:50:10.078Z,101781.00
2022-11-29T14:52:40.744Z,101772.19
2022-11-29T14:55:31.419Z,101770.16
2022-11-29T14:58:18.875Z,101766.53
2022-11-29T15:01:12.102Z,101774.91
2022-11-29T15:03:51.199Z,101773.03
2022-11-29T15:06:27.680Z,101777.09
2022-11-29T15:09:03.616Z,101777.66
2022-11-29T15:11:47.940Z,101774.03
2022-11-29T15:14:24.366Z,101772.94
2022-11-29T15:17:05.080Z,101776.16
2022-11-29T15:19:52.402Z,101782.78
2022-11-29T15:22:22.520Z,101778.25
2022-11-29T15:24:51.116Z,101783.19
2022-11-29T15:27:20.956Z,101781.28
2022-11-29T15:29:49.539Z,101781.06
2022-11-29T15:32:25.830Z,101779.91
2022-11-29T15:34:55.864Z,101782.22
2022-11-29T15:37:26.711Z,101776.78
2022-11-29T15:40:09.691Z,101780.84
2022-11-29T15:42:45.833Z,101782.34
2022-11-29T15:45:41.201Z,101789.72
2022-11-29T15:48:15.320Z,101802.34
2022-11-29T15:50:50.656Z,101808.81
2022-11-29T15:53:22.864Z,101804.22
2022-11-29T15:55:53.795Z,101812.44
2022-11-29T15:58:23.651Z,101810.41
2022-11-29T16:00:52.833Z,101809.16
2022-11-29T16:03:26.342Z,101810.50
2022-11-29T16:06:05.753Z,101810.09
2022-11-29T16:08:38.064Z,101808.00
2022-11-29T16:11:07.813Z,101809.31
2022-11-29T16:13:39.654Z,101810.75
2022-11-29T16:16:12.840Z,101813.75
2022-11-29T16:18:43.040Z,101808.25
2022-11-29T16:21:23.431Z,101805.44
2022-11-29T16:23:51.484Z,101805.22
2022-11-29T16:26:23.873Z,101812.63
2022-11-29T16:28:56.419Z,101809.75
2022-11-29T16:31:33.135Z,101806.06
2022-11-29T16:34:09.248Z,101819.53
2022-11-29T16:36:37.354Z,101818.44
2022-11-29T16:39:08.705Z,101818.09
2022-11-29T16:41:38.986Z,101825.53
2022-11-29T16:44:28.125Z,101823.69
2022-11-29T16:47:12.194Z,101818.31
2022-11-29T16:49:40.383Z,101828.31
2022-11-29T16:52:25.582Z,101823.75
2022-11-29T16:54:54.082Z,101824.34
2022-11-29T16:57:22.433Z,101823.31
2022-11-29T16:59:52.173Z,101829.13
2022-11-29T17:02:20.391Z,101837.47
2022-11-29T17:04:48.777Z,101827.84
2022-11-29T17:07:23.244Z,101835.38
2022-11-29T17:09:52.464Z,101836.91
2022-11-29T17:12:20.614Z,101838.31
2022-11-29T17:14:48.949Z,101839.81
2022-11-29T17:17:19.716Z,101842.13
2022-11-29T17:19:49.068Z,101841.09
2022-11-29T17:22:17.101Z,101840.94
2022-11-29T17:24:48.386Z,101839.97
2022-11-29T17:27:16.881Z,101833.69
2022-11-29T17:29:44.934Z,101845.56
2022-11-29T17:32:12.997Z,101847.16
2022-11-29T17:34:42.422Z,101841.84
2022-11-29T17:37:10.432Z,101841.69
2022-11-29T17:39:38.446Z,101838.16
2022-11-29T17:42:06.509Z,101845.84
2022-11-29T17:44:34.868Z,101845.78
2022-11-29T17:47:02.885Z,101842.38
2022-11-29T17:49:30.939Z,101845.78
2022-11-29T17:52:00.350Z,101838.88
2022-11-29T17:54:28.462Z,101845.78
2022-11-29T17:56:56.519Z,101846.56
2022-11-29T17:59:24.481Z,101846.38
2022-11-29T18:01:52.572Z,101850.88
2022-11-29T18:04:20.852Z,101849.28
2022-11-29T18:06:50.870Z,101845.19
2022-11-29T18:09:20.835Z,101848.72
2022-11-29T18:11:50.497Z,101847.94
2022-11-29T18:14:20.660Z,101852.25
2022-11-29T18:16:48.714Z,101855.81
2022-11-29T18:19:19.896Z,101852.44
2022-11-29T18:21:49.714Z,101855.25
2022-11-29T18:24:17.737Z,101864.00
2022-11-29T18:26:47.179Z,101861.59
2022-11-29T18:29:15.349Z,101856.63
2022-11-29T18:31:46.080Z,101858.47
2022-11-29T18:34:16.175Z,101861.91
2022-11-29T18:36:45.870Z,101854.34
2022-11-29T18:39:15.604Z,101862.09
2022-11-29T18:41:45.072Z,101853.44
2022-11-29T18:44:19.060Z,101853.28
2022-11-29T18:46:47.759Z,101863.34
2022-11-29T18:49:18.320Z,101858.03
2022-11-29T18:51:47.565Z,101855.47
2022-11-29T18:54:16.979Z,101862.22
2022-11-29T18:56:46.300Z,101868.94
2022-11-29T18:59:17.744Z,101864.59
2022-11-29T19:01:48.297Z,101871.31
2022-11-29T19:04:18.586Z,101862.78
2022-11-29T19:06:47.296Z,101859.31
2022-11-29T19:09:17.449Z,101861.88
2022-11-29T19:11:46.521Z,101852.53
2022-11-29T19:14:16.287Z,101853.31
2022-11-29T19:16:46.232Z,101864.28
2022-11-29T19:19:18.776Z,101849.53
2022-11-29T19:21:46.826Z,101858.91
2022-11-29T19:24:17.984Z,101849.38
2022-11-29T19:26:47.995Z,101846.63
2022-11-29T19:29:18.221Z,101845.66
2022-11-29T19:31:46.018Z,101841.34
2022-11-29T19:34:14.079Z,101842.94
2022-11-29T19:36:44.989Z,101845.31
2022-11-29T19:39:15.439Z,101842.59
2022-11-29T19:41:44.863Z,101845.97
2022-11-29T19:44:13.483Z,101840.66
2022-11-29T19:46:46.054Z,101839.75
2022-11-29T19:49:14.465Z,101847.44
2022-11-29T19:51:42.863Z,101852.50
2022-11-29T19:54:12.258Z,101847.28
2022-11-29T19:56:41.088Z,101843.84
2022-11-29T19:59:10.079Z,101836.94
2022-11-29T20:01:41.345Z,101836.78
2022-11-29T20:04:13.502Z,101839.34
2022-11-29T20:06:42.059Z,101838.38
2022-11-29T20:09:10.176Z,101846.13
2022-11-29T20:11:38.374Z,101841.72
2022-11-29T20:14:08.348Z,101846.84
2022-11-29T20:16:38.109Z,101846.78
2022-11-29T20:19:11.843Z,101843.16
2022-11-29T20:21:43.559Z,101840.53
2022-11-29T20:24:13.325Z,101837.78
2022-11-29T20:26:42.810Z,101842.81
2022-11-29T20:29:11.489Z,101836.72
2022-11-29T20:31:47.596Z,101832.41
2022-11-29T20:34:19.659Z,101833.97
2022-11-29T20:37:07.566Z,101832.22
2022-11-29T20:39:47.129Z,101840.53
2022-11-29T20:42:45.218Z,101836.78
2022-11-29T20:45:15.499Z,101839.28
2022-11-29T20:47:51.476Z,101833.97
2022-11-29T20:50:24.041Z,101829.56
2022-11-29T20:53:04.664Z,101833.81
2022-11-29T20:55:42.527Z,101839.81
2022-11-29T20:58:19.685Z,101833.75
2022-11-29T21:00:48.031Z,101844.75
2022-11-29T21:03:16.683Z,101840.44
2022-11-29T21:05:56.284Z,101842.81
2022-11-29T21:08:39.989Z,101844.38
2022-11-29T21:11:13.426Z,101845.09
2022-11-29T21:13:42.640Z,101845.00
2022-11-29T21:16:12.902Z,101852.69
2022-11-29T21:18:41.443Z,101851.00
2022-11-29T21:21:24.136Z,101847.56
2022-11-29T21:24:02.303Z,101842.44
2022-11-29T21:26:56.720Z,101842.53
2022-11-29T21:29:25.669Z,101845.88
2022-11-29T21:31:55.525Z,101841.56
2022-11-29T21:34:41.885Z,101838.13
2022-11-29T21:37:13.832Z,101835.56
2022-11-29T21:39:43.489Z,101833.00
2022-11-29T21:42:20.600Z,101832.16
2022-11-29T21:45:13.288Z,101838.91
2022-11-29T21:47:43.982Z,101829.66
2022-11-29T21:50:14.588Z,101833.81
2022-11-29T21:52:44.482Z,101835.50
2022-11-29T21:55:12.667Z,101835.50
2022-11-29T21:57:40.654Z,101833.72
2022-11-29T22:00:10.046Z,101836.19
2022-11-29T22:02:38.298Z,101833.72
2022-11-29T22:05:08.015Z,101833.72
2022-11-29T22:07:36.364Z,101832.94
2022-11-29T22:10:13.139Z,101828.41
2022-11-29T22:12:51.324Z,101844.03
2022-11-29T22:15:24.444Z,101842.25
2022-11-29T22:17:53.109Z,101839.69
2022-11-29T22:20:21.196Z,101837.16
2022-11-29T22:22:49.437Z,101849.16
2022-11-29T22:25:19.810Z,101841.47
2022-11-29T22:27:50.708Z,101844.03
2022-11-29T22:30:19.280Z,101846.59
2022-11-29T22:32:47.515Z,101853.47
2022-11-29T22:35:16.034Z,101852.69
2022-11-29T22:37:44.061Z,101847.84
2022-11-29T22:40:14.010Z,101848.91
2022-11-29T22:42:43.513Z,101850.75
2022-11-29T22:45:12.519Z,101850.81
2022-11-29T22:47:40.539Z,101850.81
2022-11-29T22:50:09.492Z,101854.28
2022-11-29T22:52:37.874Z,101846.53
2022-11-29T22:55:06.904Z,101847.22
2022-11-29T22:57:34.877Z,101842.81
2022-11-29T23:00:05.815Z,101843.69
2022-11-29T23:02:33.847Z,101837.69
2022-11-29T23:05:01.961Z,101849.50
2022-11-29T23:07:30.149Z,101839.09
2022-11-29T23:10:00.597Z,101842.25
2022-11-29T23:12:29.143Z,101837.66
2022-11-29T23:14:57.661Z,101826.38
2022-11-29T23:17:28.362Z,101828.78
2022-11-29T23:19:56.688Z,101838.81
2022-11-29T23:22:24.703Z,101838.63
2022-11-29T23:24:52.723Z,101838.38
2022-11-29T23:27:22.151Z,101833.84
2022-11-29T23:29:50.161Z,101834.38
2022-11-29T23:32:18.235Z,101840.88
2022-11-29T23:34:47.893Z,101838.84
2022-11-29T23:37:16.156Z,101833.38
2022-11-29T23:39:44.148Z,101825.44
2022-11-29T23:42:12.304Z,101822.59
2022-11-29T23:44:40.289Z,101816.28
2022-11-29T23:47:09.673Z,101822.91
2022-11-29T23:49:39.944Z,101821.75
2022-11-29T23:52:09.330Z,101829.03
2022-11-29T23:54:37.785Z,101827.06
2022-11-29T23:57:05.919Z,101822.56
2022-11-29T23:59:34.074Z,101825.72
